To NAV CANADA Home Page Login to a new session Search on AWWS site Feedback and Comments Disclaimer Vers la page française équivalente Tips FAQ What's new on the site To the Forecasts and Observations / NOTAM section To "File a Flight Plan" website Publications and other links Update of the User's profile FIC Telephone Numbers My Weather Data Folder Route Weather Data Regional Weather Data Local Weather Data To the Forecasts and Observations / NOTAM section
Request Generated 12/04/2016 at 22:18:41 UTC . Weather information available at that time is displayed.

METAR/TAF

MONTREAL/ST-HUBERT/QC    (show WxCam)

METAR CYHU 042200Z AUTO 10005KT 9SM CLR M02/M07 A3023 RMK SLP241=
METAR CYHU 042100Z AUTO 09003KT 9SM CLR M01/M06 A3024 RMK SLP244=
METAR CYHU 042000Z AUTO VRB02KT 9SM CLR 01/M08 A3024 RMK SLP244=

TAF CYHU 041738Z 0418/0518 30006KT P6SM FEW030
BECMG 0420/0422 22006KT
BECMG 0500/0502 VRB03KT
FM051100 08007KT P6SM SCT030 BKN090
FM051300 06008KT 2SM -SN OVC030
FM051500 06010KT 1SM -SN BKN007 OVC025
RMK FCST BASED ON AUTO OBS. NXT FCST BY 050000Z=
Your time UTC time
Weather data provided by Environment Canada and NAV CANADA